createdAt,value
2019-03-21T00:01:26.182Z,9.00
2019-03-21T00:04:00.881Z,8.90
2019-03-21T00:06:37.183Z,9.00
2019-03-21T00:09:09.163Z,9.00
2019-03-21T00:12:03.791Z,8.90
2019-03-21T00:15:12.239Z,8.90
2019-03-21T00:17:54.170Z,8.90
2019-03-21T00:20:30.317Z,8.90
2019-03-21T00:23:13.203Z,8.90
2019-03-21T00:25:42.509Z,8.90
2019-03-21T00:28:11.767Z,8.90
2019-03-21T00:30:47.773Z,8.90
2019-03-21T00:33:17.028Z,8.90
2019-03-21T00:35:46.269Z,8.90
2019-03-21T00:38:22.260Z,8.90
2019-03-21T00:40:51.540Z,8.90
2019-03-21T00:43:33.524Z,8.90
2019-03-21T00:46:02.800Z,8.90
2019-03-21T00:48:32.055Z,8.90
2019-03-21T00:51:08.100Z,8.90
2019-03-21T00:53:37.917Z,8.90
2019-03-21T00:56:07.169Z,8.90
2019-03-21T00:58:42.601Z,8.90
2019-03-21T01:01:12.216Z,8.90
2019-03-21T01:03:41.578Z,8.90
2019-03-21T01:06:17.904Z,8.90
2019-03-21T01:08:47.127Z,8.90
2019-03-21T01:11:16.384Z,8.90
2019-03-21T01:13:52.569Z,8.80
2019-03-21T01:16:21.834Z,8.80
2019-03-21T01:18:51.061Z,8.80
2019-03-21T01:21:26.861Z,8.90
2019-03-21T01:24:03.399Z,8.90
2019-03-21T01:26:39.866Z,8.80
2019-03-21T01:29:09.104Z,8.80
2019-03-21T01:31:38.382Z,8.80
2019-03-21T01:34:14.880Z,8.80
2019-03-21T01:36:44.128Z,8.80
2019-03-21T01:39:13.488Z,8.90
2019-03-21T01:41:48.909Z,8.80
2019-03-21T01:44:25.034Z,8.80
2019-03-21T01:47:00.958Z,8.80
2019-03-21T01:49:30.188Z,8.80
2019-03-21T01:51:59.451Z,8.80
2019-03-21T01:54:35.546Z,8.80
2019-03-21T01:57:04.875Z,8.80
2019-03-21T01:59:34.137Z,8.80
2019-03-21T02:02:10.247Z,8.90
2019-03-21T02:04:39.622Z,8.80
2019-03-21T02:07:08.892Z,8.80
2019-03-21T02:09:45.167Z,8.80
2019-03-21T02:12:14.403Z,8.80
2019-03-21T02:14:51.842Z,8.80
2019-03-21T02:17:20.966Z,8.70
2019-03-21T02:19:57.340Z,8.80
2019-03-21T02:22:39.457Z,8.80
2019-03-21T02:25:11.986Z,8.80
2019-03-21T02:27:48.104Z,8.70
2019-03-21T02:30:19.804Z,8.70
2019-03-21T02:32:50.938Z,8.70
2019-03-21T02:35:27.174Z,8.70
2019-03-21T02:37:56.448Z,8.70
2019-03-21T02:40:25.732Z,8.70
2019-03-21T02:43:02.826Z,8.70
2019-03-21T02:45:38.373Z,8.70
2019-03-21T02:48:13.816Z,8.70
2019-03-21T02:50:43.092Z,8.70
2019-03-21T02:53:12.485Z,8.70
2019-03-21T02:55:48.927Z,8.70
2019-03-21T02:58:18.192Z,8.70
2019-03-21T03:00:47.674Z,8.70
2019-03-21T03:03:23.317Z,8.70
2019-03-21T03:05:52.643Z,8.70
2019-03-21T03:08:22.038Z,8.70
2019-03-21T03:10:59.438Z,8.60
2019-03-21T03:13:28.725Z,8.60
2019-03-21T03:15:58.060Z,8.60
2019-03-21T03:18:33.720Z,8.60
2019-03-21T03:21:09.066Z,8.60
2019-03-21T03:23:50.834Z,8.60
2019-03-21T03:26:20.134Z,8.70
2019-03-21T03:28:49.389Z,8.70
2019-03-21T03:31:24.863Z,8.70
2019-03-21T03:33:54.210Z,8.70
2019-03-21T03:36:23.502Z,8.70
2019-03-21T03:38:59.765Z,8.60
2019-03-21T03:41:29.030Z,8.60
2019-03-21T03:43:58.308Z,8.60
2019-03-21T03:46:41.022Z,8.60
2019-03-21T03:49:10.383Z,8.70
2019-03-21T03:51:39.634Z,8.60
2019-03-21T03:54:15.333Z,8.60
2019-03-21T03:56:44.593Z,8.60
2019-03-21T03:59:13.957Z,8.60
2019-03-21T04:01:50.927Z,8.60
2019-03-21T04:04:20.533Z,8.60
2019-03-21T04:06:49.798Z,8.60
2019-03-21T04:09:26.051Z,8.60
2019-03-21T04:11:55.594Z,8.70
2019-03-21T04:14:24.902Z,8.70
2019-03-21T04:17:01.027Z,8.70
2019-03-21T04:19:30.345Z,8.70
2019-03-21T04:22:13.041Z,8.70
2019-03-21T04:24:49.025Z,8.80
2019-03-21T04:27:24.467Z,8.80
2019-03-21T04:29:53.842Z,8.70
2019-03-21T04:32:23.131Z,8.80
2019-03-21T04:34:59.354Z,8.70
2019-03-21T04:37:28.669Z,8.70
2019-03-21T04:39:57.970Z,8.70
2019-03-21T04:42:33.730Z,8.80
2019-03-21T04:45:03.058Z,8.80
2019-03-21T04:47:45.267Z,8.70
2019-03-21T04:50:17.168Z,8.70
2019-03-21T04:52:46.436Z,8.70
2019-03-21T04:55:22.238Z,8.80
2019-03-21T04:57:51.528Z,8.80
2019-03-21T05:00:23.494Z,8.80
2019-03-21T05:03:00.296Z,8.80
2019-03-21T05:05:29.596Z,8.80
2019-03-21T05:07:59.137Z,8.80
2019-03-21T05:10:34.915Z,8.80
2019-03-21T05:13:04.283Z,8.80
2019-03-21T05:15:36.009Z,8.80
2019-03-21T05:18:15.301Z,8.80
2019-03-21T05:20:44.540Z,8.90
2019-03-21T05:23:26.796Z,8.90
2019-03-21T05:26:04.078Z,8.80
2019-03-21T05:28:40.031Z,8.80
2019-03-21T05:31:16.367Z,8.90
2019-03-21T05:33:52.725Z,8.80
2019-03-21T05:36:22.850Z,8.80
2019-03-21T05:39:04.829Z,8.80
2019-03-21T05:41:34.169Z,8.80
2019-03-21T05:44:15.627Z,8.80
2019-03-21T05:46:44.876Z,8.90
2019-03-21T05:49:27.045Z,8.90
2019-03-21T05:51:56.430Z,8.90
2019-03-21T05:54:25.711Z,8.90
2019-03-21T05:57:02.079Z,8.90
2019-03-21T05:59:31.356Z,9.00
2019-03-21T06:02:02.914Z,9.00
2019-03-21T06:04:39.177Z,9.00
2019-03-21T06:07:21.659Z,9.00
2019-03-21T06:09:57.943Z,9.00
2019-03-21T06:12:27.198Z,9.00
2019-03-21T06:14:59.282Z,9.00
2019-03-21T06:17:35.926Z,9.00
2019-03-21T06:20:16.700Z,9.00
2019-03-21T06:23:11.252Z,9.00
2019-03-21T06:25:52.872Z,9.00
2019-03-21T06:28:29.030Z,9.10
2019-03-21T06:30:58.259Z,9.10
2019-03-21T06:33:27.504Z,9.10
2019-03-21T06:36:03.653Z,9.10
2019-03-21T06:38:35.505Z,9.10
2019-03-21T06:41:05.639Z,9.10
2019-03-21T06:43:41.274Z,9.20
2019-03-21T06:46:10.503Z,9.20
2019-03-21T06:48:39.769Z,9.20
2019-03-21T06:51:22.149Z,9.30
2019-03-21T06:53:52.496Z,9.30
2019-03-21T06:56:21.760Z,9.30
2019-03-21T06:58:58.052Z,9.40
2019-03-21T07:01:27.300Z,9.40
2019-03-21T07:04:06.554Z,9.40
2019-03-21T07:06:34.297Z,9.50
2019-03-21T07:09:05.557Z,9.50
2019-03-21T07:11:34.834Z,9.50
2019-03-21T07:14:10.909Z,9.50
2019-03-21T07:16:40.212Z,9.60
2019-03-21T07:19:09.515Z,9.60
2019-03-21T07:21:45.986Z,9.60
2019-03-21T07:24:22.208Z,9.70
2019-03-21T07:27:04.553Z,9.70
2019-03-21T07:29:33.767Z,9.70
2019-03-21T07:32:03.031Z,9.80
2019-03-21T07:34:39.539Z,9.80
2019-03-21T07:37:08.824Z,9.80
2019-03-21T07:39:38.100Z,9.80
2019-03-21T07:42:14.857Z,9.80
2019-03-21T07:44:44.103Z,9.90
2019-03-21T07:47:13.593Z,9.90
2019-03-21T07:49:49.838Z,9.90
2019-03-21T07:52:26.054Z,10.00
2019-03-21T07:55:02.237Z,9.90
2019-03-21T07:57:31.524Z,10.00
2019-03-21T08:00:00.747Z,10.00
2019-03-21T08:02:36.359Z,10.00
2019-03-21T08:05:06.663Z,10.00
2019-03-21T08:07:35.918Z,10.00
2019-03-21T08:10:12.796Z,10.00
2019-03-21T08:12:42.110Z,10.00
2019-03-21T08:15:11.742Z,10.00
2019-03-21T08:17:48.065Z,10.10
2019-03-21T08:20:18.145Z,10.10
2019-03-21T08:22:47.391Z,10.10
2019-03-21T08:25:23.033Z,10.10
2019-03-21T08:27:59.304Z,10.10
2019-03-21T08:30:47.013Z,10.00
2019-03-21T08:33:16.257Z,10.10
2019-03-21T08:35:45.513Z,10.20
2019-03-21T08:38:21.666Z,10.20
2019-03-21T08:40:50.955Z,10.20
2019-03-21T08:43:20.224Z,10.20
2019-03-21T08:45:56.054Z,10.20
2019-03-21T08:48:25.332Z,10.30
2019-03-21T08:50:54.546Z,10.30
2019-03-21T08:53:36.829Z,10.30
2019-03-21T08:56:06.456Z,10.30
2019-03-21T08:58:35.725Z,10.40
2019-03-21T09:01:12.440Z,10.30
2019-03-21T09:03:41.692Z,10.40
2019-03-21T09:06:10.931Z,10.40
2019-03-21T09:08:46.554Z,10.50
2019-03-21T09:11:15.844Z,10.50
2019-03-21T09:13:45.089Z,10.60
2019-03-21T09:16:21.107Z,10.60
2019-03-21T09:18:50.379Z,10.60
2019-03-21T09:21:20.193Z,10.60
2019-03-21T09:23:56.370Z,10.80
2019-03-21T09:26:31.878Z,10.90
2019-03-21T09:29:07.762Z,10.90
2019-03-21T09:31:36.996Z,10.90
2019-03-21T09:34:06.329Z,11.00
2019-03-21T09:36:41.758Z,11.10
2019-03-21T09:39:11.085Z,11.20
2019-03-21T09:41:40.331Z,11.20
2019-03-21T09:44:15.763Z,11.20
2019-03-21T09:46:50.878Z,11.10
2019-03-21T09:49:15.991Z,11.10
2019-03-21T09:51:51.886Z,11.20
2019-03-21T09:54:27.762Z,11.20
2019-03-21T09:57:03.738Z,11.30
2019-03-21T09:59:33.017Z,11.30
2019-03-21T10:02:02.268Z,11.40
2019-03-21T10:04:37.839Z,11.40
2019-03-21T10:07:07.114Z,11.50
2019-03-21T10:09:36.346Z,11.60
2019-03-21T10:12:12.359Z,11.60
2019-03-21T10:14:41.597Z,11.70
2019-03-21T10:17:10.822Z,11.70
2019-03-21T10:19:48.348Z,11.80
2019-03-21T10:22:17.186Z,11.70
2019-03-21T10:24:59.927Z,11.80
2019-03-21T10:27:36.364Z,11.80
2019-03-21T10:30:13.729Z,11.90
2019-03-21T10:32:42.993Z,11.80
2019-03-21T10:35:12.247Z,11.80
2019-03-21T10:37:47.895Z,11.80
2019-03-21T10:40:17.120Z,11.80
2019-03-21T10:42:46.389Z,12.00
2019-03-21T10:45:22.172Z,12.00
2019-03-21T10:47:51.452Z,12.10
2019-03-21T10:50:37.762Z,12.10
2019-03-21T10:53:09.483Z,12.10
2019-03-21T10:55:52.093Z,12.10
2019-03-21T10:58:21.363Z,12.20
2019-03-21T11:00:50.647Z,12.20
2019-03-21T11:03:27.706Z,12.10
2019-03-21T11:05:56.942Z,12.10
2019-03-21T11:08:26.202Z,12.10
2019-03-21T11:11:01.598Z,12.20
2019-03-21T11:13:30.956Z,12.20
2019-03-21T11:16:00.256Z,12.20
2019-03-21T11:18:36.440Z,12.20
2019-03-21T11:21:05.808Z,12.10
2019-03-21T11:23:35.034Z,12.10
2019-03-21T11:26:10.724Z,12.10
2019-03-21T11:28:46.102Z,12.00
2019-03-21T11:31:22.343Z,12.00
2019-03-21T11:33:51.568Z,12.20
2019-03-21T11:36:20.847Z,12.30
2019-03-21T11:38:56.747Z,12.20
2019-03-21T11:41:26.014Z,12.10
2019-03-21T11:43:55.330Z,12.10
2019-03-21T11:46:31.418Z,12.10
2019-03-21T11:49:00.753Z,12.00
2019-03-21T11:51:30.100Z,12.10
2019-03-21T11:54:06.484Z,12.20
2019-03-21T11:56:42.509Z,12.30
2019-03-21T11:59:19.406Z,12.30
2019-03-21T12:01:48.711Z,12.20
2019-03-21T12:04:17.956Z,12.20
2019-03-21T12:06:53.820Z,12.20
2019-03-21T12:09:23.108Z,12.20
2019-03-21T12:11:52.455Z,12.20
2019-03-21T12:14:28.727Z,12.10
2019-03-21T12:16:58.072Z,12.10
2019-03-21T12:19:27.549Z,12.10
2019-03-21T12:22:03.321Z,12.20
2019-03-21T12:24:32.722Z,12.30
2019-03-21T12:27:15.456Z,12.40
2019-03-21T12:29:51.350Z,12.30
2019-03-21T12:32:27.465Z,12.20
2019-03-21T12:34:56.789Z,12.10
2019-03-21T12:37:26.098Z,12.10
2019-03-21T12:40:01.568Z,12.20
2019-03-21T12:42:30.799Z,12.10
2019-03-21T12:45:00.361Z,12.10
2019-03-21T12:47:36.575Z,12.20
2019-03-21T12:50:07.376Z,12.30
2019-03-21T12:55:14.730Z,12.30
2019-03-21T12:57:50.870Z,12.30
2019-03-21T13:00:39.913Z,12.30
2019-03-21T13:03:09.615Z,12.30
2019-03-21T13:05:39.665Z,12.20
2019-03-21T13:07:13.063Z,12.20
2019-03-21T13:08:15.310Z,12.30
2019-03-21T13:10:44.712Z,12.30
2019-03-21T13:13:14.039Z,12.20
2019-03-21T13:15:49.836Z,12.10
2019-03-21T13:18:19.089Z,12.30
2019-03-21T13:20:48.411Z,12.30
2019-03-21T13:23:23.883Z,12.20
2019-03-21T13:25:59.804Z,12.20
2019-03-21T13:28:43.341Z,12.20
2019-03-21T13:31:12.677Z,12.20
2019-03-21T13:33:42.023Z,12.10
2019-03-21T13:36:17.857Z,12.00
2019-03-21T13:38:47.059Z,12.00
2019-03-21T13:41:16.388Z,12.00
2019-03-21T13:43:52.447Z,12.10
2019-03-21T13:46:21.712Z,12.20
2019-03-21T13:48:50.912Z,12.00
2019-03-21T13:51:26.550Z,12.00
2019-03-21T13:53:55.727Z,12.00
2019-03-21T13:56:24.938Z,12.00
2019-03-21T13:59:07.485Z,12.10
2019-03-21T14:01:36.696Z,12.10
2019-03-21T14:04:05.890Z,12.10
2019-03-21T14:06:41.557Z,12.20
2019-03-21T14:09:10.876Z,12.20
2019-03-21T14:11:40.178Z,12.30
2019-03-21T14:14:15.910Z,12.30
2019-03-21T14:16:45.193Z,12.30
2019-03-21T14:19:14.565Z,12.30
2019-03-21T14:21:50.667Z,12.20
2019-03-21T14:24:19.975Z,12.10
2019-03-21T14:27:02.194Z,12.10
2019-03-21T14:29:38.180Z,12.10
2019-03-21T14:32:15.255Z,12.10
2019-03-21T14:34:44.508Z,12.30
2019-03-21T14:37:13.767Z,12.30
2019-03-21T14:39:49.967Z,12.40
2019-03-21T14:42:19.292Z,12.20
2019-03-21T14:44:48.595Z,12.30
2019-03-21T14:47:35.591Z,12.40
2019-03-21T14:49:55.449Z,12.30
2019-03-21T14:52:24.692Z,12.30
2019-03-21T14:55:01.122Z,12.50
2019-03-21T14:57:30.669Z,12.50
2019-03-21T15:00:16.242Z,12.60
2019-03-21T15:02:45.659Z,12.60
2019-03-21T15:05:15.598Z,12.50
2019-03-21T15:07:51.782Z,12.50
2019-03-21T15:10:21.081Z,12.40
2019-03-21T15:12:50.413Z,12.30
2019-03-21T15:15:27.544Z,12.40
2019-03-21T15:17:58.703Z,12.40
2019-03-21T15:20:28.406Z,12.30
2019-03-21T15:23:04.840Z,12.30
2019-03-21T15:25:34.173Z,12.30
2019-03-21T15:28:17.184Z,12.30
2019-03-21T15:30:53.489Z,12.30
2019-03-21T15:33:29.450Z,12.20
2019-03-21T15:35:58.675Z,12.20
2019-03-21T15:38:28.017Z,12.30
2019-03-21T15:41:03.475Z,12.30
2019-03-21T15:43:32.832Z,12.30
2019-03-21T15:46:02.099Z,12.30
2019-03-21T15:48:38.420Z,12.30
2019-03-21T15:51:07.711Z,12.30
2019-03-21T15:53:36.997Z,12.30
2019-03-21T15:56:12.851Z,12.20
2019-03-21T15:58:42.443Z,12.20
2019-03-21T16:01:24.779Z,12.20
2019-03-21T16:03:54.609Z,12.20
2019-03-21T16:06:24.677Z,12.00
2019-03-21T16:09:00.748Z,11.90
2019-03-21T16:11:29.982Z,11.90
2019-03-21T16:13:59.240Z,11.80
2019-03-21T16:16:34.934Z,11.80
2019-03-21T16:19:04.233Z,11.80
2019-03-21T16:21:46.885Z,11.70
2019-03-21T16:24:16.118Z,11.80
2019-03-21T16:26:45.342Z,11.70
2019-03-21T16:29:21.644Z,11.70
2019-03-21T16:31:57.103Z,11.60
2019-03-21T16:34:32.683Z,11.50
2019-03-21T16:37:02.264Z,11.40
2019-03-21T16:39:31.546Z,11.40
2019-03-21T16:42:08.040Z,11.40
2019-03-21T16:44:37.409Z,11.40
2019-03-21T16:47:06.695Z,11.30
2019-03-21T16:49:42.881Z,11.20
2019-03-21T16:52:12.171Z,11.20
2019-03-21T16:54:41.413Z,11.10
2019-03-21T16:57:17.835Z,11.00
2019-03-21T16:59:47.192Z,11.00
2019-03-21T17:02:31.404Z,10.90
2019-03-21T17:05:00.557Z,10.80
2019-03-21T17:07:29.992Z,10.80
2019-03-21T17:10:07.328Z,10.80
2019-03-21T17:12:36.856Z,10.70
2019-03-21T17:15:06.752Z,10.50
2019-03-21T17:17:43.085Z,10.50
2019-03-21T17:20:13.916Z,10.40
2019-03-21T17:22:43.381Z,10.30
2019-03-21T17:25:19.746Z,10.20
2019-03-21T17:27:49.265Z,10.10
2019-03-21T17:30:31.941Z,10.10
2019-03-21T17:33:08.419Z,9.90
2019-03-21T17:35:44.473Z,9.90
2019-03-21T17:38:13.773Z,9.80
2019-03-21T17:40:43.104Z,9.70
2019-03-21T17:43:19.283Z,9.70
2019-03-21T17:45:48.664Z,9.60
2019-03-21T17:48:17.951Z,9.60
2019-03-21T17:50:54.293Z,9.50
2019-03-21T17:53:23.524Z,9.50
2019-03-21T17:55:52.819Z,9.30
2019-03-21T17:58:29.026Z,9.20
2019-03-21T18:00:58.346Z,9.10
2019-03-21T18:03:41.604Z,9.10
2019-03-21T18:06:10.899Z,9.10
2019-03-21T18:08:40.125Z,9.00
2019-03-21T18:11:16.152Z,9.00
2019-03-21T18:13:45.397Z,9.00
2019-03-21T18:16:35.374Z,8.90
2019-03-21T18:19:11.779Z,8.80
2019-03-21T18:21:47.295Z,8.80
2019-03-21T18:24:16.521Z,8.70
2019-03-21T18:26:46.053Z,8.70
2019-03-21T18:29:22.286Z,8.60
2019-03-21T18:31:58.631Z,8.60
2019-03-21T18:34:34.766Z,8.50
2019-03-21T18:37:04.039Z,8.50
2019-03-21T18:39:33.401Z,8.40
2019-03-21T18:42:09.218Z,8.30
2019-03-21T18:44:41.088Z,8.20
2019-03-21T18:47:10.719Z,8.20
2019-03-21T18:49:46.583Z,8.20
2019-03-21T18:52:16.287Z,8.20
2019-03-21T18:54:45.597Z,8.10
2019-03-21T18:57:23.158Z,8.00
2019-03-21T18:59:53.305Z,8.00
2019-03-21T19:02:22.689Z,7.90
2019-03-21T19:05:04.638Z,7.80
2019-03-21T19:07:33.910Z,7.80
2019-03-21T19:10:03.559Z,7.70
2019-03-21T19:12:39.495Z,7.70
2019-03-21T19:15:10.188Z,7.70
2019-03-21T19:17:39.463Z,7.80
2019-03-21T19:20:16.053Z,7.70
2019-03-21T19:22:45.432Z,7.60
2019-03-21T19:25:18.949Z,7.40
2019-03-21T19:27:53.325Z,7.40
2019-03-21T19:30:29.622Z,7.40
2019-03-21T19:33:11.884Z,7.40
2019-03-21T19:35:43.752Z,7.50
2019-03-21T19:38:12.988Z,7.40
2019-03-21T19:40:49.203Z,7.30
2019-03-21T19:43:18.463Z,7.30
2019-03-21T19:45:47.751Z,7.30
2019-03-21T19:48:23.756Z,7.20
2019-03-21T19:50:53.060Z,7.20
2019-03-21T19:53:24.178Z,7.20
2019-03-21T19:56:08.444Z,7.40
2019-03-21T19:58:30.880Z,7.40
2019-03-21T20:01:00.317Z,7.60
2019-03-21T20:03:36.839Z,7.60
2019-03-21T20:06:12.588Z,7.50
2019-03-21T20:08:48.691Z,7.50
2019-03-21T20:11:17.922Z,7.50
2019-03-21T20:13:50.835Z,7.40
2019-03-21T20:16:27.257Z,7.20
2019-03-21T20:18:57.754Z,7.00
2019-03-21T20:21:29.984Z,6.90
2019-03-21T20:24:06.260Z,6.90
2019-03-21T20:26:35.659Z,6.90
2019-03-21T20:29:09.555Z,6.80
2019-03-21T20:31:48.811Z,6.80
2019-03-21T20:34:25.227Z,6.90
2019-03-21T20:37:01.010Z,6.90
2019-03-21T20:39:30.325Z,6.80
2019-03-21T20:42:00.647Z,6.80
2019-03-21T20:44:36.815Z,6.70
2019-03-21T20:47:06.125Z,6.70
2019-03-21T20:49:35.368Z,6.60
2019-03-21T20:52:10.779Z,6.60
2019-03-21T20:54:40.037Z,6.50
2019-03-21T20:57:09.365Z,6.50
2019-03-21T20:59:45.124Z,6.50
2019-03-21T21:02:14.712Z,6.40
2019-03-21T21:04:44.124Z,6.40
2019-03-21T21:07:26.627Z,6.40
2019-03-21T21:09:55.926Z,6.30
2019-03-21T21:12:25.159Z,6.20
2019-03-21T21:15:01.269Z,6.30
2019-03-21T21:17:30.557Z,6.30
2019-03-21T21:20:00.504Z,6.40
2019-03-21T21:22:35.912Z,6.50
2019-03-21T21:25:06.111Z,6.50
2019-03-21T21:27:35.373Z,6.50
2019-03-21T21:30:11.821Z,6.60
2019-03-21T21:32:48.550Z,6.50
2019-03-21T21:35:31.168Z,6.40
2019-03-21T21:38:00.400Z,6.30
2019-03-21T21:40:32.621Z,6.50
2019-03-21T21:43:09.078Z,6.40
2019-03-21T21:45:38.397Z,6.40
2019-03-21T21:48:07.794Z,6.40
2019-03-21T21:50:43.972Z,6.40
2019-03-21T21:53:13.999Z,6.60
2019-03-21T21:55:43.259Z,6.60
2019-03-21T21:58:20.317Z,6.60
2019-03-21T22:00:49.700Z,6.60
2019-03-21T22:03:19.072Z,6.70
2019-03-21T22:05:55.487Z,6.70
2019-03-21T22:08:31.698Z,6.80
2019-03-21T22:11:07.595Z,6.80
2019-03-21T22:13:36.858Z,7.00
2019-03-21T22:16:06.114Z,6.90
2019-03-21T22:18:42.501Z,6.80
2019-03-21T22:21:11.766Z,6.80
2019-03-21T22:23:41.004Z,6.80
2019-03-21T22:26:16.422Z,6.60
2019-03-21T22:28:45.661Z,6.50
2019-03-21T22:31:29.646Z,6.50
2019-03-21T22:34:08.149Z,6.40
2019-03-21T22:36:49.238Z,6.30
2019-03-21T22:39:15.235Z,6.30
2019-03-21T22:41:44.495Z,6.30
2019-03-21T22:44:20.388Z,6.30
2019-03-21T22:46:49.645Z,6.10
2019-03-21T22:49:18.929Z,5.90
2019-03-21T22:51:55.195Z,5.80
2019-03-21T22:54:24.453Z,5.70
2019-03-21T22:56:53.763Z,5.60
2019-03-21T22:59:29.167Z,5.80
2019-03-21T23:01:58.418Z,5.60
2019-03-21T23:04:27.717Z,5.60
2019-03-21T23:07:03.278Z,5.60
2019-03-21T23:09:39.396Z,5.50
2019-03-21T23:12:14.756Z,5.60
2019-03-21T23:14:44.032Z,5.80
2019-03-21T23:17:13.471Z,5.90
2019-03-21T23:19:49.312Z,6.20
2019-03-21T23:22:18.540Z,6.30
2019-03-21T23:24:47.808Z,6.40
2019-03-21T23:27:23.896Z,6.50
2019-03-21T23:29:53.112Z,6.50
2019-03-21T23:32:35.725Z,6.40
2019-03-21T23:35:12.246Z,6.40
2019-03-21T23:37:47.939Z,6.30
2019-03-21T23:40:17.438Z,6.30
2019-03-21T23:42:46.870Z,6.30
2019-03-21T23:45:23.196Z,6.30
2019-03-21T23:47:52.580Z,6.20
2019-03-21T23:50:22.151Z,6.30
2019-03-21T23:52:57.861Z,6.20
2019-03-21T23:55:27.241Z,6.40
2019-03-21T23:57:57.040Z,6.40
